createdAt,value
2018-07-03T00:01:17.774Z,17.20
2018-07-03T00:03:47.109Z,17.10
2018-07-03T00:06:16.674Z,17.00
2018-07-03T00:08:45.937Z,16.90
2018-07-03T00:11:15.297Z,16.80
2018-07-03T00:13:44.658Z,16.80
2018-07-03T00:16:19.356Z,16.80
2018-07-03T00:18:48.748Z,16.80
2018-07-03T00:21:17.941Z,16.80
2018-07-03T00:23:47.272Z,16.80
2018-07-03T00:26:16.586Z,16.90
2018-07-03T00:28:45.940Z,16.80
2018-07-03T00:31:15.192Z,16.80
2018-07-03T00:33:44.496Z,16.70
2018-07-03T00:36:13.779Z,16.60
2018-07-03T00:38:43.064Z,16.50
2018-07-03T00:41:12.353Z,16.40
2018-07-03T00:43:42.123Z,16.40
2018-07-03T00:46:11.433Z,16.30
2018-07-03T00:48:40.800Z,16.30
2018-07-03T00:53:38.907Z,16.20
2018-07-03T00:56:08.178Z,16.20
2018-07-03T00:58:38.244Z,16.30
2018-07-03T01:01:07.480Z,16.30
2018-07-03T01:03:36.822Z,16.30
2018-07-03T01:06:06.228Z,16.30
2018-07-03T01:08:35.480Z,16.30
2018-07-03T01:11:04.835Z,16.30
2018-07-03T01:13:34.108Z,16.30
2018-07-03T01:16:03.425Z,16.20
2018-07-03T01:18:32.637Z,16.00
2018-07-03T01:21:01.974Z,16.00
2018-07-03T01:23:31.233Z,15.90
2018-07-03T01:26:00.524Z,15.80
2018-07-03T01:28:30.385Z,15.80
2018-07-03T01:30:59.691Z,15.70
2018-07-03T01:35:57.940Z,15.60
2018-07-03T01:38:27.438Z,15.70
2018-07-03T01:40:56.759Z,15.70
2018-07-03T01:43:26.087Z,15.70
2018-07-03T01:45:56.123Z,15.60
2018-07-03T01:48:25.535Z,15.70
2018-07-03T01:50:54.810Z,15.60
2018-07-03T01:53:24.074Z,15.50
2018-07-03T01:55:53.381Z,15.40
2018-07-03T01:58:22.643Z,15.40
2018-07-03T02:00:51.954Z,15.30
2018-07-03T02:03:21.255Z,15.20
2018-07-03T02:05:50.551Z,15.00
2018-07-03T02:08:19.867Z,15.00
2018-07-03T02:10:49.183Z,14.90
2018-07-03T02:13:18.435Z,14.90
2018-07-03T02:15:47.688Z,14.90
2018-07-03T02:18:16.948Z,14.80
2018-07-03T02:20:46.188Z,14.80
2018-07-03T02:23:16.291Z,14.80
2018-07-03T02:25:45.572Z,14.90
2018-07-03T02:28:14.856Z,14.80
2018-07-03T02:30:44.130Z,14.80
2018-07-03T02:33:14.199Z,14.90
2018-07-03T02:35:43.421Z,14.90
2018-07-03T02:38:12.688Z,14.90
2018-07-03T02:40:42.579Z,14.80
2018-07-03T02:43:11.916Z,14.70
2018-07-03T02:45:41.196Z,14.70
2018-07-03T02:48:10.793Z,14.60
2018-07-03T02:50:40.023Z,14.60
2018-07-03T02:53:09.326Z,14.70
2018-07-03T02:55:38.596Z,14.70
2018-07-03T02:58:07.933Z,14.70
2018-07-03T03:00:37.237Z,14.60
2018-07-03T03:03:06.532Z,14.60
2018-07-03T03:05:35.798Z,14.60
2018-07-03T03:08:05.109Z,14.60
2018-07-03T03:10:34.728Z,14.70
2018-07-03T03:13:04.081Z,14.70
2018-07-03T03:15:33.539Z,14.60
2018-07-03T03:18:02.840Z,14.60
2018-07-03T03:20:32.169Z,14.50
2018-07-03T03:23:01.492Z,14.40
2018-07-03T03:25:30.983Z,14.30
2018-07-03T03:28:00.227Z,14.10
2018-07-03T03:30:29.458Z,14.10
2018-07-03T03:32:58.742Z,14.00
2018-07-03T03:35:28.044Z,13.90
2018-07-03T03:37:57.347Z,13.90
2018-07-03T03:40:26.650Z,13.80
2018-07-03T03:42:55.947Z,13.80
2018-07-03T03:45:25.243Z,13.80
2018-07-03T03:47:54.601Z,13.80
2018-07-03T03:50:23.832Z,13.90
2018-07-03T03:52:53.096Z,14.00
2018-07-03T03:55:22.358Z,14.20
2018-07-03T03:57:51.690Z,14.20
2018-07-03T04:00:21.046Z,14.30
2018-07-03T04:02:50.288Z,14.20
2018-07-03T04:05:19.584Z,14.20
2018-07-03T04:07:49.341Z,14.10
2018-07-03T04:10:18.612Z,14.20
2018-07-03T04:12:47.841Z,14.20
2018-07-03T04:15:17.058Z,14.30
2018-07-03T04:20:15.173Z,14.40
2018-07-03T04:22:44.483Z,14.50
2018-07-03T04:25:13.848Z,14.60
2018-07-03T04:27:43.195Z,14.60
2018-07-03T04:30:12.443Z,14.70
2018-07-03T04:32:41.804Z,14.70
2018-07-03T04:35:11.642Z,14.80
2018-07-03T04:37:40.918Z,14.80
2018-07-03T04:40:10.260Z,14.80
2018-07-03T04:42:39.563Z,14.80
2018-07-03T04:45:08.939Z,14.80
2018-07-03T04:47:38.237Z,14.80
2018-07-03T04:50:07.990Z,14.80
2018-07-03T04:52:37.331Z,14.90
2018-07-03T04:55:06.981Z,15.00
2018-07-03T05:00:05.100Z,15.10
2018-07-03T05:02:34.659Z,15.20
2018-07-03T05:05:04.993Z,15.30
2018-07-03T05:07:34.416Z,15.60
2018-07-03T05:10:03.878Z,15.90
2018-07-03T05:12:33.151Z,16.30
2018-07-03T05:15:02.434Z,16.80
2018-07-03T05:17:31.750Z,17.00
2018-07-03T05:20:00.967Z,17.10
2018-07-03T05:22:30.253Z,17.10
2018-07-03T05:24:59.571Z,17.10
2018-07-03T05:27:28.867Z,17.20
2018-07-03T05:29:58.122Z,17.30
2018-07-03T05:32:27.559Z,17.40
2018-07-03T05:34:57.052Z,17.60
2018-07-03T05:37:26.278Z,17.80
2018-07-03T05:39:55.581Z,17.90
2018-07-03T05:42:24.816Z,17.80
2018-07-03T05:44:54.083Z,17.90
2018-07-03T05:47:23.354Z,17.80
2018-07-03T05:49:52.696Z,17.90
2018-07-03T05:52:21.968Z,17.90
2018-07-03T05:54:51.516Z,18.10
2018-07-03T05:57:20.843Z,18.30
2018-07-03T05:59:50.154Z,18.40
2018-07-03T06:02:19.534Z,18.60
2018-07-03T06:04:49.563Z,18.60
2018-07-03T06:07:18.876Z,18.70
2018-07-03T06:09:48.499Z,18.70
2018-07-03T06:12:17.766Z,18.80
2018-07-03T06:14:47.245Z,18.80
2018-07-03T06:17:16.827Z,18.90
2018-07-03T06:19:46.162Z,19.00
2018-07-03T06:22:15.741Z,19.10
2018-07-03T06:24:48.597Z,19.20
2018-07-03T06:27:17.934Z,19.30
2018-07-03T06:29:47.423Z,19.40
2018-07-03T06:32:16.612Z,19.60
2018-07-03T06:34:45.909Z,19.70
2018-07-03T06:37:15.270Z,19.70
2018-07-03T06:39:44.478Z,19.80
2018-07-03T06:42:13.803Z,20.00
2018-07-03T06:49:41.243Z,20.60
2018-07-03T06:52:10.601Z,21.00
2018-07-03T06:54:39.828Z,21.30
2018-07-03T06:57:09.062Z,21.60
2018-07-03T06:59:38.828Z,22.00
2018-07-03T07:02:08.074Z,22.40
2018-07-03T07:04:37.419Z,22.50
2018-07-03T07:07:06.807Z,22.50
2018-07-03T07:09:36.459Z,22.80
2018-07-03T07:12:05.952Z,23.30
2018-07-03T07:14:35.657Z,23.20
2018-07-03T07:17:04.999Z,23.30
2018-07-03T07:19:34.295Z,23.30
2018-07-03T07:22:03.715Z,23.40
2018-07-03T07:24:33.048Z,23.60
2018-07-03T07:27:02.390Z,23.60
2018-07-03T07:29:31.693Z,23.80
2018-07-03T07:32:01.168Z,24.00
2018-07-03T07:34:30.472Z,24.10
2018-07-03T07:36:59.765Z,24.40
2018-07-03T07:39:29.382Z,24.40
2018-07-03T07:41:58.763Z,24.50
2018-07-03T07:44:28.194Z,24.60
2018-07-03T07:46:57.575Z,24.80
2018-07-03T07:49:27.565Z,24.70
2018-07-03T07:51:57.172Z,24.70
2018-07-03T07:54:26.490Z,24.80
2018-07-03T07:56:55.959Z,25.00
2018-07-03T07:59:25.234Z,25.00
2018-07-03T08:01:54.599Z,25.00
2018-07-03T08:06:52.832Z,25.40
2018-07-03T08:09:22.117Z,25.40
2018-07-03T08:11:51.433Z,25.70
2018-07-03T08:14:20.727Z,25.80
2018-07-03T08:16:50.322Z,25.90
2018-07-03T08:19:19.622Z,26.00
2018-07-03T08:21:48.957Z,26.00
2018-07-03T08:24:18.289Z,26.10
2018-07-03T08:26:47.655Z,26.20
2018-07-03T08:29:17.013Z,26.30
2018-07-03T08:31:46.403Z,26.40
2018-07-03T08:34:15.720Z,26.50
2018-07-03T08:36:45.039Z,26.70
2018-07-03T08:39:14.312Z,26.90
2018-07-03T08:41:43.694Z,27.10
2018-07-03T08:44:13.048Z,27.30
2018-07-03T08:46:42.435Z,27.30
2018-07-03T08:49:11.759Z,27.30
2018-07-03T08:51:41.178Z,27.20
2018-07-03T08:54:10.443Z,27.20
2018-07-03T08:56:39.916Z,27.20
2018-07-03T08:59:09.221Z,27.30
2018-07-03T09:01:38.589Z,27.40
2018-07-03T09:04:08.343Z,27.40
2018-07-03T09:09:08.870Z,27.50
2018-07-03T09:11:38.228Z,27.70
2018-07-03T09:16:37.335Z,28.10
2018-07-03T09:21:35.785Z,28.50
2018-07-03T09:24:05.411Z,28.40
2018-07-03T09:26:34.741Z,28.30
2018-07-03T09:29:04.285Z,28.30
2018-07-03T09:31:33.571Z,28.20
2018-07-03T09:34:02.938Z,28.10
2018-07-03T09:36:32.197Z,28.10
2018-07-03T09:39:01.976Z,28.30
2018-07-03T09:41:31.340Z,28.30
2018-07-03T09:44:00.690Z,28.40
2018-07-03T09:48:59.048Z,28.40
2018-07-03T09:51:28.466Z,28.50
2018-07-03T09:53:58.192Z,28.60
2018-07-03T09:56:27.620Z,28.70
2018-07-03T09:58:56.956Z,28.60
2018-07-03T10:01:26.276Z,28.80
2018-07-03T10:03:55.656Z,28.70
2018-07-03T10:06:24.932Z,28.80
2018-07-03T10:08:54.193Z,28.80
2018-07-03T10:11:23.774Z,28.80
2018-07-03T10:13:53.102Z,28.80
2018-07-03T10:16:22.379Z,28.80
2018-07-03T10:18:51.735Z,28.90
2018-07-03T10:21:21.717Z,28.80
2018-07-03T10:26:19.902Z,29.10
2018-07-03T10:28:49.313Z,29.00
2018-07-03T10:31:18.624Z,28.90
2018-07-03T10:33:47.859Z,28.90
2018-07-03T10:36:17.177Z,28.80
2018-07-03T10:38:46.482Z,28.90
2018-07-03T10:41:15.806Z,28.80
2018-07-03T10:43:45.137Z,29.00
2018-07-03T10:46:14.388Z,28.90
2018-07-03T10:48:43.760Z,28.90
2018-07-03T10:51:13.031Z,28.70
2018-07-03T10:53:42.295Z,28.70
2018-07-03T10:56:11.841Z,28.50
2018-07-03T10:58:41.118Z,28.50
2018-07-03T11:01:10.578Z,28.80
2018-07-03T11:03:40.890Z,28.90
2018-07-03T11:06:10.182Z,28.90
2018-07-03T11:08:39.588Z,28.80
2018-07-03T11:11:09.049Z,28.80
2018-07-03T11:13:38.382Z,28.90
2018-07-03T11:16:07.763Z,29.00
2018-07-03T11:18:37.370Z,29.00
2018-07-03T11:21:07.046Z,28.90
2018-07-03T11:23:36.362Z,29.10
2018-07-03T11:26:06.011Z,29.10
2018-07-03T11:28:35.303Z,29.00
2018-07-03T11:31:04.611Z,29.10
2018-07-03T11:33:33.848Z,29.00
2018-07-03T11:36:03.219Z,29.00
2018-07-03T11:38:32.622Z,29.10
2018-07-03T11:41:01.988Z,29.30
2018-07-03T11:43:31.262Z,29.40
2018-07-03T11:46:00.589Z,29.40
2018-07-03T11:48:29.971Z,29.40
2018-07-03T11:50:59.556Z,29.40
2018-07-03T11:53:28.980Z,29.30
2018-07-03T11:55:58.347Z,29.20
2018-07-03T11:58:27.678Z,29.20
2018-07-03T12:00:57.146Z,29.20
2018-07-03T12:03:26.602Z,29.20
2018-07-03T12:05:55.924Z,29.20
2018-07-03T12:08:25.294Z,29.10
2018-07-03T12:10:55.243Z,29.20
2018-07-03T12:13:24.617Z,29.20
2018-07-03T12:15:54.010Z,29.30
2018-07-03T12:18:28.617Z,29.20
2018-07-03T12:20:58.017Z,29.10
2018-07-03T12:23:27.355Z,29.10
2018-07-03T12:25:57.052Z,29.00
2018-07-03T12:28:26.728Z,29.00
2018-07-03T12:30:56.146Z,29.10
2018-07-03T12:33:25.553Z,29.00
2018-07-03T12:35:54.951Z,29.00
2018-07-03T12:38:24.761Z,29.00
2018-07-03T12:40:54.064Z,28.80
2018-07-03T12:43:23.380Z,29.00
2018-07-03T12:45:53.105Z,29.10
2018-07-03T12:48:22.588Z,29.20
2018-07-03T12:50:52.022Z,29.20
2018-07-03T12:53:21.486Z,29.20
2018-07-03T12:55:50.832Z,29.20
2018-07-03T12:58:20.493Z,29.30
2018-07-03T13:00:49.805Z,29.30
2018-07-03T13:03:19.199Z,29.30
2018-07-03T13:05:49.472Z,29.40
2018-07-03T13:08:18.790Z,29.30
2018-07-03T13:10:48.098Z,29.20
2018-07-03T13:13:17.503Z,29.20
2018-07-03T13:15:47.151Z,29.10
2018-07-03T13:18:23.566Z,29.00
2018-07-03T13:20:54.443Z,29.00
2018-07-03T13:23:24.886Z,29.00
2018-07-03T13:28:23.284Z,29.00
2018-07-03T13:30:52.610Z,28.90
2018-07-03T13:33:22.399Z,28.90
2018-07-03T13:35:51.810Z,29.00
2018-07-03T13:38:21.345Z,29.10
2018-07-03T13:40:50.594Z,29.00
2018-07-03T13:43:19.992Z,28.90
2018-07-03T13:45:50.160Z,28.90
2018-07-03T13:48:19.886Z,29.00
2018-07-03T13:50:49.239Z,29.10
2018-07-03T13:53:18.723Z,29.00
2018-07-03T13:55:48.316Z,29.10
2018-07-03T13:58:17.600Z,29.10
2018-07-03T14:00:46.861Z,29.20
2018-07-03T14:03:16.212Z,29.30
2018-07-03T14:05:45.535Z,29.40
2018-07-03T14:08:15.020Z,29.30
2018-07-03T14:10:44.322Z,29.30
2018-07-03T14:15:42.544Z,29.30
2018-07-03T14:18:11.876Z,29.30
2018-07-03T14:20:41.447Z,29.40
2018-07-03T14:23:10.823Z,29.40
2018-07-03T14:25:40.136Z,29.60
2018-07-03T14:28:10.128Z,29.60
2018-07-03T14:30:39.433Z,29.60
2018-07-03T14:33:09.622Z,29.50
2018-07-03T14:35:38.904Z,29.50
2018-07-03T14:38:08.371Z,29.50
2018-07-03T14:40:37.728Z,29.50
2018-07-03T14:43:07.036Z,29.50
2018-07-03T14:45:36.365Z,29.40
2018-07-03T14:48:12.225Z,29.40
2018-07-03T14:50:41.546Z,29.20
2018-07-03T14:53:11.486Z,29.20
2018-07-03T14:55:41.020Z,29.10
2018-07-03T14:58:10.327Z,29.20
2018-07-03T15:00:39.649Z,29.20
2018-07-03T15:03:09.029Z,29.20
2018-07-03T15:05:38.347Z,29.20
2018-07-03T15:08:07.758Z,29.20
2018-07-03T15:10:37.073Z,29.20
2018-07-03T15:13:06.459Z,29.10
2018-07-03T15:15:36.382Z,29.20
2018-07-03T15:18:05.801Z,29.20
2018-07-03T15:20:35.162Z,29.30
2018-07-03T15:23:05.395Z,29.40
2018-07-03T15:25:34.839Z,29.50
2018-07-03T15:28:04.221Z,29.60
2018-07-03T15:30:33.670Z,29.60
2018-07-03T15:33:03.010Z,29.70
2018-07-03T15:35:32.422Z,29.70
2018-07-03T15:38:01.811Z,29.60
2018-07-03T15:40:31.372Z,29.60
2018-07-03T15:43:00.835Z,29.50
2018-07-03T15:45:30.574Z,29.50
2018-07-03T15:48:00.034Z,29.50
2018-07-03T15:50:29.402Z,29.40
2018-07-03T15:52:58.793Z,29.30
2018-07-03T15:55:28.084Z,29.40
2018-07-03T15:57:57.411Z,29.40
2018-07-03T16:00:26.806Z,29.50
2018-07-03T16:03:07.554Z,29.50
2018-07-03T16:05:48.121Z,29.60
2018-07-03T16:09:28.201Z,29.50
2018-07-03T16:11:57.468Z,29.40
2018-07-03T16:14:26.754Z,29.40
2018-07-03T16:16:56.202Z,29.40
2018-07-03T16:20:34.404Z,29.50
2018-07-03T16:23:03.805Z,29.50
2018-07-03T16:25:33.195Z,29.30
2018-07-03T16:28:02.518Z,29.20
2018-07-03T16:30:31.880Z,29.20
2018-07-03T16:33:01.344Z,29.20
2018-07-03T16:35:30.767Z,29.10
2018-07-03T16:38:00.110Z,29.10
2018-07-03T16:40:31.022Z,29.10
2018-07-03T16:43:01.296Z,29.00
2018-07-03T16:45:30.831Z,29.10
2018-07-03T16:48:00.127Z,29.00
2018-07-03T16:50:29.425Z,29.00
2018-07-03T16:52:58.813Z,28.90
2018-07-03T16:55:28.141Z,29.00
2018-07-03T16:57:57.472Z,29.00
2018-07-03T17:00:29.874Z,28.90
2018-07-03T17:02:59.235Z,28.90
2018-07-03T17:05:28.554Z,28.90
2018-07-03T17:07:57.939Z,28.90
2018-07-03T17:10:27.251Z,28.80
2018-07-03T17:12:56.988Z,28.80
2018-07-03T17:15:26.275Z,28.80
2018-07-03T17:17:55.941Z,28.80
2018-07-03T17:20:25.254Z,28.90
2018-07-03T17:22:54.481Z,28.90
2018-07-03T17:25:23.889Z,28.80
2018-07-03T17:27:53.442Z,28.80
2018-07-03T17:30:22.733Z,28.70
2018-07-03T17:32:52.114Z,28.70
2018-07-03T17:35:21.570Z,28.70
2018-07-03T17:37:50.952Z,28.60
2018-07-03T17:40:31.373Z,28.50
2018-07-03T17:44:18.816Z,28.50
2018-07-03T17:46:48.701Z,28.50
2018-07-03T17:49:18.118Z,28.50
2018-07-03T17:51:47.466Z,28.50
2018-07-03T17:54:16.898Z,28.40
2018-07-03T17:56:46.241Z,28.50
2018-07-03T17:59:15.729Z,28.40
2018-07-03T18:01:44.935Z,28.40
2018-07-03T18:04:14.285Z,28.30
2018-07-03T18:06:43.839Z,28.30
2018-07-03T18:09:14.021Z,28.20
2018-07-03T18:11:43.567Z,28.20
2018-07-03T18:14:12.880Z,28.20
2018-07-03T18:16:42.510Z,28.30
2018-07-03T18:19:17.036Z,28.20
2018-07-03T18:21:46.494Z,28.20
2018-07-03T18:24:16.135Z,28.20
2018-07-03T18:26:45.741Z,28.10
2018-07-03T18:29:15.378Z,28.10
2018-07-03T18:31:44.987Z,28.20
2018-07-03T18:34:14.637Z,28.10
2018-07-03T18:36:44.095Z,28.10
2018-07-03T18:39:13.507Z,28.10
2018-07-03T18:41:42.834Z,28.00
2018-07-03T18:44:12.204Z,28.00
2018-07-03T18:46:41.560Z,27.90
2018-07-03T18:49:10.950Z,27.90
2018-07-03T18:51:40.312Z,27.90
2018-07-03T18:54:09.693Z,27.80
2018-07-03T18:56:39.107Z,27.70
2018-07-03T18:59:09.051Z,27.50
2018-07-03T19:01:38.348Z,27.50
2018-07-03T19:04:07.663Z,27.40
2018-07-03T19:06:37.147Z,27.30
2018-07-03T19:09:07.899Z,27.20
2018-07-03T19:11:37.731Z,27.00
2018-07-03T19:14:07.142Z,26.90
2018-07-03T19:16:36.528Z,26.80
2018-07-03T19:19:06.116Z,26.60
2018-07-03T19:21:35.508Z,26.60
2018-07-03T19:24:05.059Z,26.50
2018-07-03T19:26:34.508Z,26.50
2018-07-03T19:29:03.907Z,26.30
2018-07-03T19:31:33.470Z,26.20
2018-07-03T19:34:03.329Z,26.10
2018-07-03T19:36:33.187Z,25.90
2018-07-03T19:39:11.098Z,25.80
2018-07-03T19:44:10.722Z,25.50
2018-07-03T19:46:40.172Z,25.30
2018-07-03T19:49:09.639Z,25.10
2018-07-03T19:51:39.020Z,25.00
2018-07-03T19:54:08.424Z,24.90
2018-07-03T19:56:37.988Z,24.70
2018-07-03T19:59:07.427Z,24.60
2018-07-03T20:01:36.891Z,24.40
2018-07-03T20:04:10.959Z,24.30
2018-07-03T20:06:40.284Z,24.10
2018-07-03T20:09:12.203Z,24.00
2018-07-03T20:11:42.043Z,23.90
2018-07-03T20:14:12.242Z,23.80
2018-07-03T20:16:41.738Z,23.70
2018-07-03T20:19:14.415Z,23.60
2018-07-03T20:21:45.421Z,23.50
2018-07-03T20:24:16.204Z,23.40
2018-07-03T20:26:45.520Z,23.30
2018-07-03T20:29:15.066Z,23.30
2018-07-03T20:31:44.468Z,23.30
2018-07-03T20:34:13.872Z,23.30
2018-07-03T20:36:43.254Z,23.20
2018-07-03T20:39:12.665Z,23.20
2018-07-03T20:41:42.248Z,23.10
2018-07-03T20:44:11.603Z,23.10
2018-07-03T20:46:40.929Z,23.20
2018-07-03T20:49:10.273Z,23.10
2018-07-03T20:51:39.698Z,23.10
2018-07-03T20:54:09.109Z,23.10
2018-07-03T20:56:38.528Z,23.10
2018-07-03T20:59:08.092Z,23.00
2018-07-03T21:01:37.307Z,23.00
2018-07-03T21:04:06.710Z,23.00
2018-07-03T21:06:35.918Z,23.00
2018-07-03T21:09:07.557Z,23.00
2018-07-03T21:11:36.986Z,22.90
2018-07-03T21:14:06.389Z,22.90
2018-07-03T21:16:36.779Z,22.90
2018-07-03T21:19:06.124Z,22.90
2018-07-03T21:21:35.431Z,22.80
2018-07-03T21:24:04.999Z,22.80
2018-07-03T21:26:34.250Z,22.80
2018-07-03T21:29:03.534Z,22.70
2018-07-03T21:31:32.773Z,22.60
2018-07-03T21:34:02.147Z,22.70
2018-07-03T21:36:31.737Z,22.70
2018-07-03T21:39:01.086Z,22.70
2018-07-03T21:41:30.330Z,22.60
2018-07-03T21:43:59.940Z,22.70
2018-07-03T21:46:29.219Z,22.70
2018-07-03T21:48:58.588Z,22.60
2018-07-03T21:51:32.019Z,22.60
2018-07-03T21:54:01.955Z,22.50
2018-07-03T21:56:31.278Z,22.40
2018-07-03T22:01:29.550Z,22.10
2018-07-03T22:03:58.816Z,22.00
2018-07-03T22:06:28.575Z,22.00
2018-07-03T22:08:57.900Z,21.90
2018-07-03T22:11:27.483Z,21.70
2018-07-03T22:13:57.588Z,21.60
2018-07-03T22:16:26.921Z,21.50
2018-07-03T22:18:56.248Z,21.40
2018-07-03T22:21:25.924Z,21.40
2018-07-03T22:23:55.258Z,21.20
2018-07-03T22:26:24.568Z,21.20
2018-07-03T22:28:54.847Z,21.10
2018-07-03T22:31:24.399Z,21.00
2018-07-03T22:33:54.197Z,20.90
2018-07-03T22:36:23.463Z,20.90
2018-07-03T22:38:52.799Z,20.90
2018-07-03T22:41:22.125Z,20.80
2018-07-03T22:43:51.454Z,20.70
2018-07-03T22:46:21.118Z,20.60
2018-07-03T22:48:50.378Z,20.60
2018-07-03T22:51:19.710Z,20.50
2018-07-03T22:53:49.005Z,20.40
2018-07-03T22:56:18.326Z,20.40
2018-07-03T22:58:47.609Z,20.40
2018-07-03T23:01:16.875Z,20.40
2018-07-03T23:03:46.250Z,20.30
2018-07-03T23:06:15.545Z,20.40
2018-07-03T23:08:44.811Z,20.30
2018-07-03T23:11:14.471Z,20.30
2018-07-03T23:16:12.593Z,20.40
2018-07-03T23:18:41.930Z,20.40
2018-07-03T23:21:11.240Z,20.30
2018-07-03T23:23:40.559Z,20.40
2018-07-03T23:26:09.956Z,20.40
2018-07-03T23:28:39.271Z,20.40
2018-07-03T23:31:09.079Z,20.40
2018-07-03T23:33:38.294Z,20.50
2018-07-03T23:36:07.795Z,20.50
2018-07-03T23:38:37.838Z,20.60
2018-07-03T23:41:07.399Z,20.50
2018-07-03T23:43:37.212Z,20.50
2018-07-03T23:46:05.345Z,20.50
2018-07-03T23:48:45.756Z,20.50
2018-07-03T23:54:13.015Z,20.70
2018-07-03T23:56:59.601Z,20.70
2018-07-03T23:59:46.064Z,20.70
